Time;durP1;ratioP1;P1;durP2;ratioP2;P2;SDS_P1;SDS_P2;PMS_P1;PMS_P2;Temp;Humidity;BMP_temperature;BMP_pressure;BME280_temperature;BME280_humidity;BME280_pressure;Samples;Min_cycle;Max_cycle;Signal;HPM_P1;HPM_P2
2023/01/29 00:08:46;;;;;;;83.10;48.80;;;;;;;21.05;36.04;102526.44;21004300;28;20040;-64
2023/01/29 00:18:47;;;;;;;103.18;60.15;;;;;;;21.27;35.95;102550.84;21001990;28;20588;-64
2023/01/29 00:28:48;;;;;;;130.93;74.65;;;;;;;21.33;36.26;102562.97;21004438;28;20115;-64
2023/01/29 00:38:58;;;;;;;142.50;83.10;;;;;;;21.37;36.29;102564.19;21113373;28;20411;-64
2023/01/29 00:48:59;;;;;;;156.65;90.00;;;;;;;21.41;36.26;102563.44;21146020;28;20048;-63
2023/01/29 00:59:03;;;;;;;154.57;90.35;;;;;;;21.47;36.21;102567.19;21019661;28;20105;-64
2023/01/29 01:19:25;;;;;;;148.75;86.95;;;;;;;21.58;36.25;102583.03;20998405;28;20032;-63
2023/01/29 01:29:29;;;;;;;137.60;83.03;;;;;;;21.62;36.37;102584.22;21099246;28;20035;-63
2023/01/29 01:39:31;;;;;;;139.02;80.95;;;;;;;21.56;36.28;102580.47;21161781;28;20120;-63
2023/01/29 01:49:35;;;;;;;132.90;75.97;;;;;;;21.67;36.47;102605.75;21006750;28;20102;-64
2023/01/29 01:59:38;;;;;;;125.78;72.70;;;;;;;21.70;36.99;102597.78;21009071;28;20479;-63
2023/01/29 02:10:04;;;;;;;121.75;73.88;;;;;;;21.48;36.79;102577.22;21076268;28;20455;-64
2023/01/29 02:20:08;;;;;;;119.28;68.00;;;;;;;21.75;37.08;102624.88;21028225;28;20105;-65
2023/01/29 02:30:54;;;;;;;112.15;66.85;;;;;;;21.72;37.05;102614.25;21084211;28;20407;-64
2023/01/29 02:41:10;;;;;;;108.03;64.32;;;;;;;21.72;37.01;102612.31;20976156;28;20044;-64
2023/01/29 02:51:25;;;;;;;101.35;60.72;;;;;;;21.70;36.89;102625.63;21075244;28;20041;-64
2023/01/29 03:01:34;;;;;;;98.63;60.03;;;;;;;21.65;36.61;102617.16;21073579;28;20548;-64
2023/01/29 03:11:41;;;;;;;98.00;58.90;;;;;;;21.69;36.80;102623.94;21074261;28;20050;-64
2023/01/29 03:21:54;;;;;;;89.72;53.75;;;;;;;21.69;36.77;102621.16;21086871;28;20032;-63
2023/01/29 03:32:05;;;;;;;87.72;53.03;;;;;;;21.66;36.80;102609.66;21088420;28;20380;-63
2023/01/29 03:42:24;;;;;;;82.57;53.65;;;;;;;21.63;36.52;102608.22;21087618;28;20039;-62
2023/01/29 03:52:34;;;;;;;76.93;50.30;;;;;;;21.62;36.41;102605.66;21086923;28;20047;-63
2023/01/29 04:03:00;;;;;;;80.93;48.75;;;;;;;21.58;36.75;102596.97;21042210;28;20041;-63
2023/01/29 04:13:08;;;;;;;70.75;44.88;;;;;;;21.59;36.54;102595.03;21001276;28;20142;-63
2023/01/29 04:23:24;;;;;;;69.15;44.30;;;;;;;21.54;36.41;102587.41;21000766;28;20039;-63
2023/01/29 04:33:44;;;;;;;67.07;41.25;;;;;;;21.57;36.47;102586.91;20998770;28;20036;-63
2023/01/29 04:44:30;;;;;;;61.47;38.42;;;;;;;21.50;36.19;102578.69;20998727;28;20043;-64
2023/01/29 04:54:41;;;;;;;60.40;38.85;;;;;;;21.52;36.01;102575.66;20973938;28;20094;-65
2023/01/29 05:04:44;;;;;;;55.70;36.10;;;;;;;21.43;36.17;102552.06;20997553;28;20036;-64
2023/01/29 05:14:48;;;;;;;51.13;34.67;;;;;;;21.45;35.94;102547.94;20996571;28;20041;-64
2023/01/29 05:24:49;;;;;;;51.80;33.05;;;;;;;21.33;36.28;102518.44;20992936;28;20375;-64
2023/01/29 05:34:51;;;;;;;48.63;32.20;;;;;;;21.43;35.90;102536.19;20994634;28;20075;-64
2023/01/29 05:44:55;;;;;;;46.22;30.80;;;;;;;21.42;35.77;102528.09;20993735;28;20348;-64
2023/01/29 05:54:56;;;;;;;44.10;29.48;;;;;;;21.42;35.77;102511.38;20993131;28;20396;-64
2023/01/29 06:04:58;;;;;;;40.83;27.15;;;;;;;21.37;35.63;102502.94;20993946;28;20074;-64
2023/01/29 06:15:02;;;;;;;34.90;23.50;;;;;;;21.46;35.77;102518.16;21036033;28;20078;-63
2023/01/29 06:25:03;;;;;;;34.80;22.25;;;;;;;21.44;35.68;102506.41;21058976;28;20040;-63
2023/01/29 06:35:05;;;;;;;29.23;19.25;;;;;;;21.54;35.84;102515.81;20997683;28;20036;-63
2023/01/29 06:45:08;;;;;;;27.88;19.15;;;;;;;21.62;35.72;102508.16;20991796;28;20052;-63
2023/01/29 06:55:09;;;;;;;27.52;18.05;;;;;;;21.65;35.76;102497.38;21083899;28;20052;-64
2023/01/29 07:05:11;;;;;;;26.42;17.63;;;;;;;21.71;35.57;102504.72;21123302;28;20047;-63
2023/01/29 07:15:12;;;;;;;22.50;15.80;;;;;;;21.55;35.76;102466.53;21090134;28;20102;-63
2023/01/29 07:25:13;;;;;;;27.83;15.45;;;;;;;21.78;35.88;102499.84;21119527;28;20044;-64
2023/01/29 07:35:15;;;;;;;26.23;14.35;;;;;;;21.81;36.04;102502.16;21127474;28;20066;-63
2023/01/29 07:45:19;;;;;;;24.35;13.75;;;;;;;21.83;36.16;102499.94;21021135;28;20105;-63
2023/01/29 07:55:20;;;;;;;19.73;12.32;;;;;;;21.86;35.95;102489.41;21116250;28;20086;-62
2023/01/29 08:05:22;;;;;;;19.10;12.43;;;;;;;21.86;35.88;102483.84;21117860;28;20059;-63
2023/01/29 08:15:24;;;;;;;19.73;12.40;;;;;;;21.87;35.92;102474.38;21081180;28;20500;-63
2023/01/29 08:25:25;;;;;;;20.17;11.98;;;;;;;21.81;35.78;102470.66;21166694;28;20036;-63
2023/01/29 08:35:29;;;;;;;17.73;11.60;;;;;;;21.87;35.86;102482.75;21048201;28;20041;-63
2023/01/29 08:45:36;;;;;;;17.75;10.80;;;;;;;21.87;36.20;102479.97;21000329;28;20047;-63
2023/01/29 08:55:40;;;;;;;15.20;10.10;;;;;;;21.85;36.17;102474.59;20998472;28;20071;-63
2023/01/29 09:05:45;;;;;;;16.00;9.80;;;;;;;21.81;36.54;102471.50;20998019;28;20036;-63
2023/01/29 09:15:46;;;;;;;16.90;10.13;;;;;;;21.82;36.57;102481.56;20996199;28;20095;-63
2023/01/29 09:25:48;;;;;;;14.50;9.48;;;;;;;21.82;36.34;102470.41;20996279;28;20045;-64
2023/01/29 09:35:49;;;;;;;15.02;10.10;;;;;;;21.80;36.36;102464.22;21019891;28;20043;-63
2023/01/29 09:46:38;;;;;;;13.52;9.55;;;;;;;21.73;36.96;102448.78;21034262;28;20052;-63
2023/01/29 09:56:45;;;;;;;10.98;8.57;;;;;;;21.75;36.75;102433.47;21051837;28;20043;-63
2023/01/29 10:06:57;;;;;;;12.98;8.75;;;;;;;21.76;36.56;102443.53;20996055;28;20097;-63
2023/01/29 10:17:40;;;;;;;12.85;8.75;;;;;;;21.72;36.89;102433.16;21055851;28;20044;-63
2023/01/29 10:27:50;;;;;;;9.32;7.28;;;;;;;21.73;36.70;102427.31;21082697;28;20569;-63
2023/01/29 10:37:53;;;;;;;10.38;7.90;;;;;;;21.73;36.80;102434.84;21092606;28;20490;-63
2023/01/29 10:48:33;;;;;;;9.73;6.50;;;;;;;21.67;36.63;102442.25;21074141;28;20556;-62
2023/01/29 10:58:44;;;;;;;9.60;6.93;;;;;;;21.66;37.15;102423.84;21032751;28;20496;-64
2023/01/29 11:09:12;;;;;;;8.85;6.68;;;;;;;21.64;36.83;102437.19;21083395;28;20035;-63
2023/01/29 11:19:15;;;;;;;10.30;6.57;;;;;;;21.62;37.03;102417.06;21027879;28;20545;-63
2023/01/29 11:29:40;;;;;;;9.18;6.32;;;;;;;21.54;36.95;102401.63;21005506;28;20025;-63
2023/01/29 11:39:49;;;;;;;12.80;6.80;;;;;;;21.54;36.69;102403.56;21004521;28;20036;-63
2023/01/29 11:50:02;;;;;;;7.13;5.18;;;;;;;21.54;36.92;102403.56;21043911;28;20508;-63
2023/01/29 12:00:21;;;;;;;7.55;5.15;;;;;;;21.49;37.07;102406.25;21062394;28;20196;-63
2023/01/29 12:10:42;;;;;;;7.60;5.40;;;;;;;21.46;37.04;102390.03;21039870;28;20036;-63
2023/01/29 12:20:50;;;;;;;6.78;5.03;;;;;;;21.47;36.26;102402.88;21001012;28;20098;-63
2023/01/29 12:31:24;;;;;;;5.80;4.77;;;;;;;21.46;36.65;102398.41;21001112;28;20067;-63
2023/01/29 12:41:53;;;;;;;5.68;4.50;;;;;;;21.53;36.09;102390.72;21000352;28;20041;-64
2023/01/29 12:52:12;;;;;;;5.47;4.22;;;;;;;21.61;36.00;102393.09;21019964;28;20079;-64
2023/01/29 13:02:28;;;;;;;5.53;4.30;;;;;;;21.68;36.14;102393.81;21048888;28;20044;-63
2023/01/29 13:12:32;;;;;;;4.70;3.80;;;;;;;21.73;35.75;102418.97;21037669;28;20048;-63
2023/01/29 13:22:37;;;;;;;5.15;3.95;;;;;;;21.79;36.08;102397.59;20996128;28;20094;-66
2023/01/29 13:32:49;;;;;;;4.05;3.30;;;;;;;21.85;35.58;102398.53;21036611;28;20093;-63
2023/01/29 13:42:53;;;;;;;4.45;3.45;;;;;;;21.88;35.71;102392.47;21032085;28;20044;-64
2023/01/29 13:53:00;;;;;;;4.90;3.55;;;;;;;21.92;35.61;102396.44;21025770;28;20052;-63
2023/01/29 14:03:10;;;;;;;4.35;3.10;;;;;;;21.96;35.84;102406.81;21012139;28;20070;-63
2023/01/29 14:13:17;;;;;;;3.58;3.17;;;;;;;21.98;35.70;102409.34;21052009;28;20044;-62
2023/01/29 14:23:21;;;;;;;4.40;3.60;;;;;;;22.03;35.77;102412.22;21036212;28;20048;-64
2023/01/29 14:33:25;;;;;;;4.30;3.08;;;;;;;22.05;35.66;102376.59;20991853;28;20037;-63
2023/01/29 14:43:29;;;;;;;3.10;2.80;;;;;;;21.89;35.93;102327.25;21031889;28;20094;-65
2023/01/29 14:53:42;;;;;;;9.60;3.50;;;;;;;21.99;36.01;102338.56;21014173;28;20051;-62
2023/01/29 15:03:50;;;;;;;5.70;3.78;;;;;;;22.07;36.11;102352.06;21010494;28;20117;-63
2023/01/29 15:14:04;;;;;;;4.03;2.70;;;;;;;22.12;35.81;102366.13;21027512;28;20117;-63
2023/01/29 15:24:06;;;;;;;5.55;3.60;;;;;;;22.04;35.88;102314.44;21042683;28;20284;-64
2023/01/29 15:34:08;;;;;;;7.35;3.03;;;;;;;22.13;35.87;102312.06;21086212;28;20105;-64
2023/01/29 15:44:17;;;;;;;4.80;3.00;;;;;;;22.14;35.78;102285.03;21005364;28;20056;-64
2023/01/29 15:54:18;;;;;;;6.05;3.08;;;;;;;22.14;35.85;102269.16;21046441;28;20032;-65
2023/01/29 16:04:25;;;;;;;6.82;3.17;;;;;;;22.08;35.65;102239.47;21031868;28;20128;-62
2023/01/29 16:14:28;;;;;;;6.40;3.33;;;;;;;21.99;35.65;102216.78;21047645;28;20045;-62
2023/01/29 16:24:38;;;;;;;4.63;2.83;;;;;;;22.07;35.59;102190.41;21014099;28;20037;-63
2023/01/29 16:34:47;;;;;;;7.35;3.35;;;;;;;22.12;35.72;102186.88;21004616;28;20450;-62
2023/01/29 16:44:55;;;;;;;3.85;2.90;;;;;;;22.12;35.91;102131.94;21005531;28;20133;-62
2023/01/29 16:55:14;;;;;;;5.67;3.20;;;;;;;22.07;35.58;102112.34;21022412;28;20040;-64
2023/01/29 17:05:25;;;;;;;4.22;2.80;;;;;;;22.09;35.48;102121.31;21025528;28;20044;-62
2023/01/29 17:15:31;;;;;;;3.80;2.70;;;;;;;22.08;35.73;102091.72;21027305;28;20043;-62
2023/01/29 17:25:32;;;;;;;4.82;2.90;;;;;;;22.08;35.74;102081.44;21064803;28;20372;-62
2023/01/29 17:35:34;;;;;;;3.55;2.88;;;;;;;22.06;35.70;102060.50;21111039;28;20535;-62
2023/01/29 17:45:35;;;;;;;3.50;2.85;;;;;;;22.05;35.43;102026.22;21149280;28;20035;-62
2023/01/29 17:55:36;;;;;;;4.18;2.53;;;;;;;22.02;35.90;101989.66;21114837;28;20039;-62
2023/01/29 18:05:41;;;;;;;4.30;2.55;;;;;;;22.00;35.63;101984.34;21138951;28;20555;-61
2023/01/29 18:15:42;;;;;;;4.03;2.55;;;;;;;21.98;35.92;101958.66;21002306;28;20545;-62
2023/01/29 18:25:49;;;;;;;3.30;2.40;;;;;;;21.96;35.81;101943.34;20993346;28;20040;-63
2023/01/29 18:35:53;;;;;;;3.17;2.50;;;;;;;21.94;35.34;101926.03;20992583;28;20098;-62
2023/01/29 18:45:58;;;;;;;4.15;2.58;;;;;;;21.92;35.82;101903.16;21061673;28;20481;-64
2023/01/29 18:56:03;;;;;;;3.95;2.03;;;;;;;21.67;35.60;101850.81;21124983;28;20551;-62
2023/01/29 19:06:07;;;;;;;18.85;3.63;;;;;;;21.85;36.58;101857.94;21033902;28;20488;-61
2023/01/29 19:16:11;;;;;;;9.77;3.33;;;;;;;21.88;37.00;101849.06;21099886;28;20032;-62
2023/01/29 19:26:12;;;;;;;8.20;2.88;;;;;;;21.85;38.40;101844.00;21081529;28;20142;-62
2023/01/29 19:36:16;;;;;;;8.20;3.60;;;;;;;21.91;39.21;101834.59;21086193;28;20044;-64
2023/01/29 19:46:18;;;;;;;8.95;3.20;;;;;;;21.88;39.24;101829.56;21087024;28;20446;-62
2023/01/29 19:56:22;;;;;;;5.47;3.10;;;;;;;21.87;39.69;101847.38;21086766;28;20379;-62
2023/01/29 20:06:26;;;;;;;11.32;3.00;;;;;;;21.87;39.22;101844.59;21086631;28;20060;-62
2023/01/29 20:16:27;;;;;;;5.00;2.65;;;;;;;21.80;39.52;101834.50;21085244;28;20036;-64
2023/01/29 20:26:31;;;;;;;6.03;2.83;;;;;;;21.81;38.96;101861.28;21085254;28;20391;-62
2023/01/29 20:36:36;;;;;;;4.90;2.60;;;;;;;21.79;38.66;101910.00;21083792;28;20074;-64
2023/01/29 20:46:37;;;;;;;4.18;2.70;;;;;;;21.77;38.76;101991.06;21083328;28;20120;-64
2023/01/29 20:56:42;;;;;;;3.15;2.30;;;;;;;21.75;38.20;102023.06;21082300;28;20040;-63
2023/01/29 21:06:52;;;;;;;6.72;2.33;;;;;;;21.78;38.02;101981.59;21081266;28;20044;-63
2023/01/29 21:16:54;;;;;;;3.30;2.20;;;;;;;21.79;37.62;101986.06;21080077;28;20083;-63
2023/01/29 21:26:58;;;;;;;3.65;2.38;;;;;;;21.89;37.59;101965.81;21080093;28;20028;-64
2023/01/29 21:36:59;;;;;;;2.72;2.33;;;;;;;21.93;37.46;101925.19;21079235;28;20487;-63
2023/01/29 21:47:11;;;;;;;1.92;1.67;;;;;;;21.97;37.02;101950.59;21078453;28;20105;-63
2023/01/29 21:57:33;;;;;;;2.53;2.03;;;;;;;;;;21077728;28;20048;-63
2023/01/29 22:07:34;;;;;;;5.38;2.60;;;;;;;22.03;36.99;101955.09;21076982;28;20441;-62
2023/01/29 22:17:40;;;;;;;3.47;2.10;;;;;;;22.05;36.59;101972.41;21076451;28;20479;-63
2023/01/29 22:27:41;;;;;;;4.05;2.30;;;;;;;22.06;36.71;101988.03;21076338;28;20549;-63
2023/01/29 22:37:43;;;;;;;2.80;2.05;;;;;;;22.05;36.94;101986.34;21075774;28;20553;-63
2023/01/29 22:47:47;;;;;;;2.65;2.00;;;;;;;21.97;36.93;101972.88;21075158;28;20082;-62
2023/01/29 22:57:49;;;;;;;2.22;2.03;;;;;;;22.08;36.91;102016.47;21073952;28;20043;-63
2023/01/29 23:07:53;;;;;;;2.28;2.08;;;;;;;22.06;36.64;102004.75;21074767;28;20040;-63
2023/01/29 23:17:57;;;;;;;2.75;2.10;;;;;;;22.07;37.00;102017.56;21074766;28;20032;-63
2023/01/29 23:27:59;;;;;;;2.40;2.10;;;;;;;22.07;36.79;102037.91;21073620;28;20097;-63
2023/01/29 23:38:03;;;;;;;3.53;2.20;;;;;;;22.07;36.80;102000.84;21085190;28;20495;-63
2023/01/29 23:48:04;;;;;;;2.88;2.20;;;;;;;22.05;36.81;102014.22;21087961;28;20506;-62
2023/01/29 23:58:06;;;;;;;2.20;2.00;;;;;;;22.05;37.13;102026.22;21087128;28;20036;-63
